createdAt,value
2023-05-20T00:00:01.464Z,73.79
2023-05-20T00:02:31.712Z,73.69
2023-05-20T00:04:59.915Z,73.48
2023-05-20T00:07:27.949Z,73.26
2023-05-20T00:09:56.190Z,72.87
2023-05-20T00:12:24.131Z,73.44
2023-05-20T00:14:53.760Z,73.59
2023-05-20T00:17:22.516Z,72.91
2023-05-20T00:19:51.830Z,73.21
2023-05-20T00:22:19.790Z,72.69
2023-05-20T00:24:47.746Z,72.22
2023-05-20T00:27:15.691Z,72.81
2023-05-20T00:29:43.533Z,72.78
2023-05-20T00:32:11.453Z,72.80
2023-05-20T00:34:39.295Z,73.08
2023-05-20T00:37:08.590Z,72.70
2023-05-20T00:39:36.606Z,72.65
2023-05-20T00:42:05.066Z,72.41
2023-05-20T00:44:33.413Z,72.10
2023-05-20T00:47:02.611Z,71.92
2023-05-20T00:49:30.669Z,72.02
2023-05-20T00:51:58.728Z,71.77
2023-05-20T00:54:28.135Z,71.63
2023-05-20T00:56:56.699Z,71.29
2023-05-20T00:59:25.366Z,71.18
2023-05-20T01:01:53.695Z,70.83
2023-05-20T01:04:21.866Z,70.71
2023-05-20T01:06:49.950Z,70.33
2023-05-20T01:09:17.848Z,70.67
2023-05-20T01:11:53.003Z,70.46
2023-05-20T01:14:25.026Z,70.80
2023-05-20T01:16:56.152Z,70.50
2023-05-20T01:19:39.361Z,71.10
2023-05-20T01:22:12.513Z,70.73
2023-05-20T01:24:43.056Z,71.06
2023-05-20T01:27:13.471Z,70.82
2023-05-20T01:29:44.183Z,71.36
2023-05-20T01:32:13.713Z,71.58
2023-05-20T01:34:43.030Z,71.35
2023-05-20T01:37:11.954Z,71.20
2023-05-20T01:39:42.662Z,71.24
2023-05-20T01:42:12.582Z,71.90
2023-05-20T01:44:40.883Z,71.69
2023-05-20T01:47:08.932Z,71.92
2023-05-20T01:49:37.002Z,71.90
2023-05-20T01:52:05.770Z,72.18
2023-05-20T01:54:34.805Z,72.54
2023-05-20T01:57:04.807Z,72.69
2023-05-20T01:59:32.697Z,72.79
2023-05-20T02:02:01.670Z,73.07
2023-05-20T02:04:29.795Z,72.55
2023-05-20T02:06:57.682Z,72.96
2023-05-20T02:09:25.690Z,73.02
2023-05-20T02:11:53.908Z,73.37
2023-05-20T02:14:23.256Z,73.92
2023-05-20T02:16:51.354Z,74.30
2023-05-20T02:19:23.797Z,74.11
2023-05-20T02:21:52.496Z,73.45
2023-05-20T02:24:21.240Z,73.74
2023-05-20T02:26:51.248Z,73.31
2023-05-20T02:29:22.005Z,73.47
2023-05-20T02:31:52.519Z,74.30
2023-05-20T02:34:22.210Z,74.17
2023-05-20T02:36:51.017Z,74.90
2023-05-20T02:39:18.946Z,74.96
2023-05-20T02:41:46.867Z,74.80
2023-05-20T02:44:14.999Z,75.14
2023-05-20T02:46:43.215Z,74.87
2023-05-20T02:49:12.549Z,74.59
2023-05-20T02:51:41.519Z,74.69
2023-05-20T02:54:09.461Z,74.68
2023-05-20T02:56:37.347Z,75.19
2023-05-20T02:59:06.434Z,75.08
2023-05-20T03:01:35.591Z,74.77
2023-05-20T03:04:04.698Z,74.76
2023-05-20T03:06:34.210Z,75.13
2023-05-20T03:09:02.200Z,75.48
2023-05-20T03:11:31.196Z,75.58
2023-05-20T03:13:59.162Z,75.99
2023-05-20T03:16:28.292Z,76.59
2023-05-20T03:18:56.523Z,76.56
2023-05-20T03:21:25.215Z,76.71
2023-05-20T03:23:55.017Z,77.18
2023-05-20T03:26:23.263Z,77.56
2023-05-20T03:28:52.006Z,77.27
2023-05-20T03:31:20.284Z,77.42
2023-05-20T03:33:48.302Z,77.06
2023-05-20T03:36:16.296Z,76.92
2023-05-20T03:38:44.285Z,76.61
2023-05-20T03:41:13.883Z,76.37
2023-05-20T03:43:42.008Z,76.15
2023-05-20T03:46:09.988Z,75.91
2023-05-20T03:48:37.912Z,75.96
2023-05-20T03:51:06.015Z,75.86
2023-05-20T03:53:34.577Z,75.29
2023-05-20T03:56:02.745Z,75.30
2023-05-20T03:58:33.288Z,74.98
2023-05-20T04:01:01.235Z,74.99
2023-05-20T04:03:30.194Z,74.81
2023-05-20T04:05:58.327Z,74.84
2023-05-20T04:08:26.896Z,74.82
2023-05-20T04:10:57.155Z,74.53
2023-05-20T04:13:26.314Z,74.63
2023-05-20T04:15:55.671Z,74.16
2023-05-20T04:18:24.647Z,74.03
2023-05-20T04:20:55.782Z,74.48
2023-05-20T04:23:23.816Z,74.74
2023-05-20T04:25:51.984Z,75.10
2023-05-20T04:28:23.921Z,75.10
2023-05-20T04:31:00.978Z,75.46
2023-05-20T04:33:29.042Z,75.75
2023-05-20T04:35:58.697Z,75.28
2023-05-20T04:38:30.176Z,75.46
2023-05-20T04:40:58.928Z,75.70
2023-05-20T04:43:30.890Z,75.77
2023-05-20T04:46:06.008Z,75.53
2023-05-20T04:48:34.868Z,75.61
2023-05-20T04:51:03.098Z,75.94
2023-05-20T04:53:33.990Z,76.13
2023-05-20T04:56:03.510Z,75.96
2023-05-20T04:58:31.999Z,75.77
2023-05-20T05:01:02.774Z,75.74
2023-05-20T05:03:31.452Z,75.53
2023-05-20T05:06:00.305Z,75.56
2023-05-20T05:08:28.481Z,76.06
2023-05-20T05:10:56.514Z,75.80
2023-05-20T05:13:24.643Z,75.76
2023-05-20T05:15:59.697Z,75.96
2023-05-20T05:18:30.521Z,75.63
2023-05-20T05:21:02.803Z,75.67
2023-05-20T05:23:31.134Z,76.01
2023-05-20T05:25:59.508Z,76.05
2023-05-20T05:28:27.953Z,75.45
2023-05-20T05:30:56.681Z,75.54
2023-05-20T05:33:24.806Z,75.48
2023-05-20T05:35:54.830Z,75.69
2023-05-20T05:38:22.787Z,75.59
2023-05-20T05:40:50.770Z,75.85
2023-05-20T05:43:19.146Z,75.92
2023-05-20T05:45:49.016Z,75.31
2023-05-20T05:48:16.899Z,75.29
2023-05-20T05:50:48.074Z,74.56
2023-05-20T05:53:19.348Z,74.58
2023-05-20T05:55:49.662Z,73.77
2023-05-20T05:58:18.276Z,73.42
2023-05-20T06:00:46.864Z,73.50
2023-05-20T06:03:15.071Z,73.40
2023-05-20T06:05:46.439Z,73.24
2023-05-20T06:08:14.442Z,73.40
2023-05-20T06:10:48.871Z,73.65
2023-05-20T06:13:21.907Z,73.24
2023-05-20T06:17:15.190Z,73.15
2023-05-20T06:19:43.546Z,72.72
2023-05-20T06:22:11.446Z,72.87
2023-05-20T06:24:39.393Z,73.06
2023-05-20T06:27:09.196Z,73.22
2023-05-20T06:29:37.395Z,72.66
2023-05-20T06:32:05.854Z,72.13
2023-05-20T06:34:33.898Z,72.17
2023-05-20T06:37:02.417Z,72.40
2023-05-20T06:39:30.694Z,72.00
2023-05-20T06:41:58.698Z,71.53
2023-05-20T06:44:32.402Z,71.52
2023-05-20T06:47:02.798Z,71.12
2023-05-20T06:49:32.266Z,71.16
2023-05-20T06:52:01.796Z,70.87
2023-05-20T06:54:30.598Z,70.55
2023-05-20T06:56:58.626Z,70.24
2023-05-20T06:59:26.622Z,69.58
2023-05-20T07:01:56.029Z,70.15
2023-05-20T07:04:24.261Z,70.29
2023-05-20T07:06:52.283Z,69.95
2023-05-20T07:09:21.566Z,69.92
2023-05-20T07:11:50.437Z,69.84
2023-05-20T07:14:18.842Z,69.91
2023-05-20T07:16:47.938Z,70.20
2023-05-20T07:19:17.287Z,69.95
2023-05-20T07:21:45.460Z,69.96
2023-05-20T07:24:23.306Z,69.55
2023-05-20T07:26:51.339Z,69.81
2023-05-20T07:29:19.416Z,69.20
2023-05-20T07:31:47.685Z,69.07
2023-05-20T07:34:18.854Z,68.86
2023-05-20T07:36:47.261Z,68.65
2023-05-20T07:39:16.474Z,68.49
2023-05-20T07:41:45.289Z,68.26
2023-05-20T07:44:14.433Z,68.24
2023-05-20T07:46:46.182Z,67.57
2023-05-20T07:49:14.328Z,67.02
2023-05-20T07:51:43.694Z,66.51
2023-05-20T07:54:12.670Z,65.90
2023-05-20T07:56:41.057Z,64.20
2023-05-20T07:59:10.944Z,62.60
2023-05-20T08:01:45.419Z,62.31
2023-05-20T08:04:15.978Z,61.75
2023-05-20T08:06:45.727Z,61.65
2023-05-20T08:09:20.870Z,61.26
2023-05-20T08:11:52.393Z,60.97
2023-05-20T08:14:20.297Z,60.42
2023-05-20T08:16:53.783Z,59.51
2023-05-20T08:19:24.602Z,59.54
2023-05-20T08:21:54.407Z,59.37
2023-05-20T08:24:22.777Z,59.90
2023-05-20T08:26:50.820Z,59.83
2023-05-20T08:29:20.495Z,60.49
2023-05-20T08:31:48.502Z,59.24
2023-05-20T08:34:17.805Z,59.76
2023-05-20T08:36:47.215Z,59.64
2023-05-20T08:39:17.042Z,59.61
2023-05-20T08:41:48.214Z,59.43
2023-05-20T08:44:18.528Z,59.97
2023-05-20T08:46:47.518Z,59.24
2023-05-20T08:49:15.683Z,59.19
2023-05-20T08:51:44.317Z,59.49
2023-05-20T08:54:12.991Z,59.67
2023-05-20T08:56:43.148Z,59.60
2023-05-20T08:59:11.170Z,59.80
2023-05-20T09:01:43.989Z,60.09
2023-05-20T09:04:12.624Z,59.79
2023-05-20T09:06:44.753Z,58.72
2023-05-20T09:09:13.445Z,59.03
2023-05-20T09:11:43.389Z,58.88
2023-05-20T09:14:11.454Z,59.38
2023-05-20T09:16:41.314Z,59.08
2023-05-20T09:19:09.900Z,58.87
2023-05-20T09:21:39.023Z,58.79
2023-05-20T09:24:07.711Z,58.37
2023-05-20T09:26:36.133Z,58.70
2023-05-20T09:29:05.629Z,59.42
2023-05-20T09:31:34.469Z,59.30
2023-05-20T09:34:02.978Z,59.73
2023-05-20T09:36:31.845Z,58.95
2023-05-20T09:39:05.844Z,58.96
2023-05-20T09:41:40.489Z,58.61
2023-05-20T09:44:11.289Z,58.92
2023-05-20T09:46:40.264Z,58.92
2023-05-20T09:49:08.528Z,58.72
2023-05-20T09:51:36.917Z,58.06
2023-05-20T09:54:08.341Z,57.95
2023-05-20T09:56:37.441Z,57.04
2023-05-20T09:59:06.709Z,57.30
2023-05-20T10:01:36.256Z,56.50
2023-05-20T10:04:07.001Z,57.13
2023-05-20T10:07:03.631Z,58.00
2023-05-20T10:09:51.342Z,58.21
2023-05-20T10:12:28.480Z,57.97
2023-05-20T10:15:05.873Z,58.47
2023-05-20T10:17:43.758Z,57.23
2023-05-20T10:20:12.405Z,56.96
2023-05-20T10:22:40.991Z,56.27
2023-05-20T10:25:14.083Z,55.83
2023-05-20T10:27:46.288Z,55.52
2023-05-20T10:30:18.441Z,55.69
2023-05-20T10:32:56.785Z,55.41
2023-05-20T10:35:27.189Z,55.46
2023-05-20T10:37:56.589Z,55.33
2023-05-20T10:40:24.521Z,54.44
2023-05-20T10:42:52.465Z,54.00
2023-05-20T10:45:27.771Z,53.54
2023-05-20T10:47:59.078Z,53.17
2023-05-20T10:50:30.784Z,51.92
2023-05-20T10:53:05.472Z,51.85
2023-05-20T10:55:39.392Z,52.72
2023-05-20T10:58:07.784Z,52.86
2023-05-20T11:00:37.106Z,52.32
2023-05-20T11:03:07.929Z,52.00
2023-05-20T11:05:37.145Z,52.33
2023-05-20T11:08:16.934Z,52.43
2023-05-20T11:10:57.702Z,52.62
2023-05-20T11:13:27.122Z,51.83
2023-05-20T11:15:55.683Z,50.88
2023-05-20T11:18:25.125Z,50.51
2023-05-20T11:20:54.354Z,49.18
2023-05-20T11:23:23.418Z,49.33
2023-05-20T11:25:51.990Z,49.80
2023-05-20T11:28:21.316Z,50.22
2023-05-20T11:30:49.906Z,49.99
2023-05-20T11:33:18.659Z,49.17
2023-05-20T11:35:49.556Z,48.05
2023-05-20T11:38:18.096Z,47.65
2023-05-20T11:40:51.029Z,47.10
2023-05-20T11:43:20.528Z,46.17
2023-05-20T11:45:53.838Z,46.59
2023-05-20T11:48:22.376Z,45.98
2023-05-20T11:50:51.663Z,45.84
2023-05-20T11:53:20.881Z,44.71
2023-05-20T11:55:50.476Z,44.49
2023-05-20T11:58:20.477Z,44.26
2023-05-20T12:00:53.254Z,44.63
2023-05-20T12:03:23.437Z,44.34
2023-05-20T12:05:54.172Z,44.40
2023-05-20T12:08:22.762Z,43.91
2023-05-20T12:10:50.886Z,43.97
2023-05-20T12:13:19.427Z,43.32
2023-05-20T12:15:47.421Z,43.83
2023-05-20T12:18:15.507Z,43.67
2023-05-20T12:20:43.755Z,43.36
2023-05-20T12:23:13.124Z,44.08
2023-05-20T12:25:41.017Z,43.43
2023-05-20T12:28:09.139Z,42.21
2023-05-20T12:30:37.292Z,42.13
2023-05-20T12:33:05.390Z,41.88
2023-05-20T12:35:38.762Z,41.19
2023-05-20T12:38:06.980Z,41.34
2023-05-20T12:40:37.085Z,41.24
2023-05-20T12:43:06.307Z,41.11
2023-05-20T12:45:34.449Z,40.30
2023-05-20T12:48:02.782Z,41.10
2023-05-20T12:50:30.685Z,40.96
2023-05-20T12:52:58.603Z,40.44
2023-05-20T12:55:26.548Z,40.16
2023-05-20T12:57:56.864Z,38.80
2023-05-20T13:00:24.908Z,38.36
2023-05-20T13:02:53.189Z,38.94
2023-05-20T13:05:21.599Z,39.66
2023-05-20T13:07:49.960Z,40.10
2023-05-20T13:10:18.363Z,40.47
2023-05-20T13:12:46.924Z,41.22
2023-05-20T13:15:16.865Z,41.98
2023-05-20T13:17:44.891Z,42.34
2023-05-20T13:20:14.048Z,42.59
2023-05-20T13:22:42.035Z,42.92
2023-05-20T13:25:10.521Z,42.83
2023-05-20T13:27:38.469Z,42.91
2023-05-20T13:30:07.696Z,42.92
2023-05-20T13:32:37.150Z,42.20
2023-05-20T13:35:05.597Z,41.51
2023-05-20T13:37:33.579Z,41.03
2023-05-20T13:40:01.523Z,40.55
2023-05-20T13:42:29.917Z,40.70
2023-05-20T13:44:57.930Z,40.18
2023-05-20T13:47:25.996Z,38.75
2023-05-20T13:49:55.307Z,37.66
2023-05-20T13:52:23.335Z,37.42
2023-05-20T13:54:51.553Z,36.22
2023-05-20T13:57:19.642Z,36.51
2023-05-20T13:59:47.615Z,36.58
2023-05-20T14:02:15.631Z,36.44
2023-05-20T14:04:44.948Z,36.76
2023-05-20T14:07:14.380Z,36.14
2023-05-20T14:09:42.298Z,35.63
2023-05-20T14:12:10.267Z,35.78
2023-05-20T14:14:38.158Z,35.41
2023-05-20T14:17:06.120Z,35.63
2023-05-20T14:19:34.115Z,34.84
2023-05-20T14:22:03.324Z,33.96
2023-05-20T14:24:32.617Z,34.52
2023-05-20T14:27:00.738Z,34.18
2023-05-20T14:29:28.588Z,33.93
2023-05-20T14:31:56.770Z,34.08
2023-05-20T14:34:24.806Z,33.47
2023-05-20T14:36:52.887Z,33.35
2023-05-20T14:39:20.787Z,32.40
2023-05-20T14:41:50.022Z,31.78
2023-05-20T14:44:17.921Z,32.13
2023-05-20T14:46:45.866Z,31.78
2023-05-20T14:49:13.824Z,31.21
2023-05-20T14:51:42.543Z,31.64
2023-05-20T14:54:10.665Z,30.61
2023-05-20T14:56:39.065Z,30.31
2023-05-20T14:59:08.475Z,30.11
2023-05-20T15:01:37.060Z,30.81
2023-05-20T15:04:05.418Z,31.10
2023-05-20T15:06:34.973Z,31.21
2023-05-20T15:09:02.956Z,31.51
2023-05-20T15:11:30.856Z,31.47
2023-05-20T15:13:58.946Z,32.00
2023-05-20T15:16:28.539Z,31.85
2023-05-20T15:18:56.597Z,31.54
2023-05-20T15:21:24.494Z,31.49
2023-05-20T15:23:52.681Z,31.59
2023-05-20T15:26:21.641Z,31.37
2023-05-20T15:28:49.616Z,31.26
2023-05-20T15:31:17.759Z,31.44
2023-05-20T15:33:47.334Z,30.73
2023-05-20T15:36:15.409Z,30.95
2023-05-20T15:38:43.993Z,30.99
2023-05-20T15:41:13.537Z,30.63
2023-05-20T15:43:42.306Z,30.42
2023-05-20T15:46:10.241Z,30.34
2023-05-20T15:48:39.019Z,30.15
2023-05-20T15:51:08.339Z,30.16
2023-05-20T15:53:37.494Z,30.12
2023-05-20T15:56:07.884Z,30.33
2023-05-20T15:58:36.061Z,30.34
2023-05-20T16:01:04.183Z,30.38
2023-05-20T16:03:32.342Z,30.72
2023-05-20T16:06:00.421Z,31.05
2023-05-20T16:08:30.272Z,31.29
2023-05-20T16:10:58.246Z,31.51
2023-05-20T16:13:26.183Z,31.06
2023-05-20T16:15:57.595Z,31.31
2023-05-20T16:18:25.932Z,31.57
2023-05-20T16:20:53.836Z,32.03
2023-05-20T16:23:21.880Z,32.43
2023-05-20T16:25:51.532Z,32.31
2023-05-20T16:28:19.653Z,32.44
2023-05-20T16:30:47.519Z,32.23
2023-05-20T16:33:17.345Z,32.24
2023-05-20T16:35:45.330Z,32.05
2023-05-20T16:38:13.405Z,31.89
2023-05-20T16:40:41.411Z,32.26
2023-05-20T16:43:10.765Z,32.08
2023-05-20T16:45:38.700Z,32.74
2023-05-20T16:48:07.016Z,32.43
2023-05-20T16:50:35.080Z,32.87
2023-05-20T16:53:03.241Z,33.17
2023-05-20T16:55:31.243Z,33.44
2023-05-20T16:57:59.154Z,33.11
2023-05-20T17:00:28.472Z,33.13
2023-05-20T17:02:56.523Z,33.00
2023-05-20T17:05:25.510Z,33.44
2023-05-20T17:07:55.722Z,33.75
2023-05-20T17:10:23.820Z,34.44
2023-05-20T17:12:51.729Z,35.05
2023-05-20T17:15:19.678Z,35.20
2023-05-20T17:17:48.981Z,35.83
2023-05-20T17:20:16.951Z,36.04
2023-05-20T17:22:44.980Z,36.38
2023-05-20T17:25:13.187Z,36.48
2023-05-20T17:27:41.459Z,36.96
2023-05-20T17:30:09.992Z,37.30
2023-05-20T17:32:38.682Z,37.62
2023-05-20T17:35:09.405Z,38.16
2023-05-20T17:37:37.781Z,38.59
2023-05-20T17:40:06.908Z,38.72
2023-05-20T17:42:35.604Z,39.23
2023-05-20T17:45:03.540Z,39.73
2023-05-20T17:47:31.724Z,39.73
2023-05-20T17:50:00.031Z,40.28
2023-05-20T17:52:29.422Z,40.59
2023-05-20T17:54:57.384Z,40.90
2023-05-20T17:57:25.676Z,40.78
2023-05-20T17:59:54.507Z,41.28
2023-05-20T18:02:22.545Z,41.20
2023-05-20T18:04:50.561Z,41.59
2023-05-20T18:07:18.682Z,41.66
2023-05-20T18:09:48.022Z,42.09
2023-05-20T18:12:16.576Z,42.15
2023-05-20T18:14:44.550Z,42.46
2023-05-20T18:17:12.465Z,42.74
2023-05-20T18:19:40.573Z,42.81
2023-05-20T18:22:08.632Z,42.90
2023-05-20T18:24:36.605Z,43.63
2023-05-20T18:27:06.473Z,43.50
2023-05-20T18:29:34.504Z,43.89
2023-05-20T18:32:02.609Z,44.25
2023-05-20T18:34:33.000Z,44.49
2023-05-20T18:37:01.122Z,44.45
2023-05-20T18:39:29.046Z,44.36
2023-05-20T18:41:57.098Z,44.68
2023-05-20T18:44:26.462Z,45.44
2023-05-20T18:46:54.557Z,45.37
2023-05-20T18:49:22.417Z,46.47
2023-05-20T18:51:50.311Z,47.06
2023-05-20T18:54:18.301Z,47.49
2023-05-20T18:56:48.387Z,47.58
2023-05-20T18:59:16.695Z,47.70
2023-05-20T19:01:46.026Z,47.94
2023-05-20T19:04:14.017Z,48.54
2023-05-20T19:06:41.926Z,49.38
2023-05-20T19:09:09.853Z,49.60
2023-05-20T19:11:37.732Z,50.22
2023-05-20T19:14:07.345Z,50.18
2023-05-20T19:16:35.402Z,50.22
2023-05-20T19:19:04.870Z,50.13
2023-05-20T19:21:33.535Z,50.27
2023-05-20T19:24:01.481Z,50.13
2023-05-20T19:26:29.427Z,50.19
2023-05-20T19:28:57.302Z,50.60
2023-05-20T19:31:25.588Z,50.69
2023-05-20T19:33:53.668Z,50.90
2023-05-20T19:36:23.046Z,51.07
2023-05-20T19:38:51.004Z,51.24
2023-05-20T19:41:19.461Z,51.36
2023-05-20T19:43:47.402Z,51.57
2023-05-20T19:46:15.583Z,51.94
2023-05-20T19:48:43.596Z,52.25
2023-05-20T19:51:11.711Z,52.37
2023-05-20T19:53:41.273Z,52.81
2023-05-20T19:56:09.272Z,52.91
2023-05-20T19:58:37.370Z,52.94
2023-05-20T20:01:06.703Z,52.89
2023-05-20T20:03:35.003Z,53.04
2023-05-20T20:06:04.152Z,52.97
2023-05-20T20:08:32.548Z,52.96
2023-05-20T20:11:01.812Z,53.24
2023-05-20T20:13:30.479Z,53.48
2023-05-20T20:15:58.737Z,53.90
2023-05-20T20:18:26.796Z,53.88
2023-05-20T20:20:59.785Z,54.22
2023-05-20T20:23:27.943Z,54.28
2023-05-20T20:25:56.480Z,54.89
2023-05-20T20:28:26.309Z,55.52
2023-05-20T20:30:54.584Z,55.74
2023-05-20T20:33:22.711Z,55.75
2023-05-20T20:35:54.402Z,56.22
2023-05-20T20:38:22.460Z,56.51
2023-05-20T20:40:53.433Z,57.01
2023-05-20T20:43:22.772Z,56.98
2023-05-20T20:45:53.290Z,57.00
2023-05-20T20:48:26.731Z,56.89
2023-05-20T20:50:55.066Z,56.80
2023-05-20T20:53:23.001Z,57.12
2023-05-20T20:55:51.730Z,57.44
2023-05-20T20:58:19.670Z,57.79
2023-05-20T21:00:48.701Z,58.01
2023-05-20T21:03:18.996Z,58.30
2023-05-20T21:05:48.513Z,58.46
2023-05-20T21:08:16.419Z,58.74
2023-05-20T21:10:44.541Z,58.45
2023-05-20T21:13:12.657Z,58.91
2023-05-20T21:15:41.734Z,58.52
2023-05-20T21:18:09.674Z,58.38
2023-05-20T21:20:38.968Z,58.46
2023-05-20T21:23:06.983Z,58.34
2023-05-20T21:25:34.979Z,58.05
2023-05-20T21:28:03.105Z,57.72
2023-05-20T21:30:31.031Z,57.67
2023-05-20T21:32:58.996Z,57.63
2023-05-20T21:35:27.028Z,57.62
2023-05-20T21:37:56.366Z,57.57
2023-05-20T21:40:24.445Z,57.52
2023-05-20T21:42:52.588Z,57.49
2023-05-20T21:45:20.573Z,57.42
2023-05-20T21:47:48.612Z,57.72
2023-05-20T21:50:16.555Z,57.67
2023-05-20T21:52:44.531Z,57.67
2023-05-20T21:55:13.867Z,57.42
2023-05-20T21:57:41.760Z,57.56
2023-05-20T22:00:11.500Z,57.25
2023-05-20T22:02:39.576Z,57.15
2023-05-20T22:05:07.869Z,57.00
2023-05-20T22:07:35.932Z,57.54
2023-05-20T22:10:04.190Z,57.90
2023-05-20T22:12:35.870Z,57.96
2023-05-20T22:15:03.955Z,58.22
2023-05-20T22:17:34.188Z,58.49
2023-05-20T22:20:04.646Z,58.94
2023-05-20T22:22:32.571Z,59.32
2023-05-20T22:25:00.518Z,59.58
2023-05-20T22:27:28.635Z,59.46
2023-05-20T22:29:58.344Z,59.74
2023-05-20T22:32:26.323Z,59.25
2023-05-20T22:34:58.374Z,59.25
2023-05-20T22:37:28.792Z,58.89
2023-05-20T22:39:57.126Z,58.54
2023-05-20T22:42:25.117Z,58.83
2023-05-20T22:44:53.777Z,58.35
2023-05-20T22:47:23.137Z,58.53
2023-05-20T22:49:51.392Z,58.46
2023-05-20T22:52:21.259Z,58.74
2023-05-20T22:54:49.242Z,58.88
2023-05-20T22:57:18.819Z,59.39
2023-05-20T22:59:47.032Z,59.48
2023-05-20T23:02:14.932Z,59.55
2023-05-20T23:04:44.475Z,59.79
2023-05-20T23:07:15.217Z,60.09
2023-05-20T23:09:43.134Z,60.21
2023-05-20T23:12:11.135Z,60.23
2023-05-20T23:14:39.160Z,61.14
2023-05-20T23:17:07.304Z,61.25
2023-05-20T23:19:35.546Z,60.96
2023-05-20T23:22:05.108Z,61.32
2023-05-20T23:24:33.019Z,61.25
2023-05-20T23:27:00.917Z,61.33
2023-05-20T23:29:28.980Z,61.14
2023-05-20T23:31:56.837Z,61.17
2023-05-20T23:34:24.774Z,61.23
2023-05-20T23:36:52.884Z,61.13
2023-05-20T23:39:22.680Z,61.22
2023-05-20T23:41:50.647Z,61.41
2023-05-20T23:44:18.581Z,61.47
2023-05-20T23:46:46.462Z,61.15
2023-05-20T23:49:14.383Z,61.52
2023-05-20T23:51:42.223Z,61.69
2023-05-20T23:54:10.184Z,61.94
2023-05-20T23:56:39.492Z,62.11
2023-05-20T23:59:07.424Z,61.89
